createdAt,value
2022-08-12T00:00:35.330Z,18.10
2022-08-12T00:03:21.230Z,18.03
2022-08-12T00:06:07.685Z,17.91
2022-08-12T00:08:55.594Z,17.78
2022-08-12T00:11:42.469Z,17.70
2022-08-12T00:14:29.326Z,17.60
2022-08-12T00:17:14.822Z,17.55
2022-08-12T00:20:00.271Z,17.53
2022-08-12T00:22:46.651Z,17.47
2022-08-12T00:26:05.634Z,17.39
2022-08-12T00:28:49.676Z,17.33
2022-08-12T00:31:35.493Z,17.39
2022-08-12T00:34:20.645Z,17.33
2022-08-12T00:37:13.319Z,17.24
2022-08-12T00:40:00.654Z,17.24
2022-08-12T00:42:28.132Z,17.24
2022-08-12T00:44:57.241Z,17.25
2022-08-12T00:47:25.637Z,17.30
2022-08-12T00:49:54.499Z,17.31
2022-08-12T00:52:22.118Z,17.29
2022-08-12T00:54:51.854Z,17.31
2022-08-12T00:57:26.909Z,17.30
2022-08-12T01:00:00.276Z,17.26
2022-08-12T01:02:33.689Z,17.22
2022-08-12T01:05:25.705Z,17.17
2022-08-12T01:08:11.333Z,17.05
2022-08-12T01:10:57.985Z,16.95
2022-08-12T01:13:25.978Z,16.88
2022-08-12T01:15:57.932Z,16.90
2022-08-12T01:18:27.257Z,16.86
2022-08-12T01:21:03.966Z,16.83
2022-08-12T01:23:50.172Z,16.76
2022-08-12T01:26:20.920Z,16.72
2022-08-12T01:28:51.037Z,16.62
2022-08-12T01:31:19.408Z,16.55
2022-08-12T01:33:55.547Z,16.50
2022-08-12T01:36:23.024Z,16.62
2022-08-12T01:38:50.712Z,16.66
2022-08-12T01:41:18.312Z,16.60
2022-08-12T01:43:45.429Z,16.64
2022-08-12T01:46:38.433Z,16.65
2022-08-12T01:49:17.582Z,16.63
2022-08-12T01:52:15.106Z,16.68
2022-08-12T01:54:44.662Z,16.65
2022-08-12T01:57:59.517Z,16.62
2022-08-12T02:00:16.213Z,16.58
2022-08-12T02:03:13.851Z,16.52
2022-08-12T02:06:22.487Z,16.49
2022-08-12T02:09:14.829Z,16.46
2022-08-12T02:12:13.512Z,16.46
2022-08-12T02:14:46.142Z,16.39
2022-08-12T02:17:56.050Z,16.40
2022-08-12T02:20:52.442Z,16.40
2022-08-12T02:23:25.461Z,16.45
2022-08-12T02:25:54.962Z,16.45
2022-08-12T02:28:21.717Z,16.48
2022-08-12T02:30:48.833Z,16.54
2022-08-12T02:33:18.101Z,16.60
2022-08-12T02:35:44.928Z,16.64
2022-08-12T02:38:12.613Z,16.65
2022-08-12T02:40:41.205Z,16.64
2022-08-12T02:43:27.500Z,16.66
2022-08-12T02:46:01.561Z,16.66
2022-08-12T02:48:41.750Z,16.64
2022-08-12T02:51:10.241Z,16.62
2022-08-12T02:53:37.873Z,16.60
2022-08-12T02:56:05.971Z,16.60
2022-08-12T02:58:35.509Z,16.61
2022-08-12T03:01:05.050Z,16.63
2022-08-12T03:03:34.292Z,16.62
2022-08-12T03:06:16.683Z,16.56
2022-08-12T03:08:44.875Z,16.47
2022-08-12T03:11:31.515Z,16.44
2022-08-12T03:14:02.209Z,16.40
2022-08-12T03:16:33.230Z,16.35
2022-08-12T03:19:00.545Z,16.30
2022-08-12T03:21:52.973Z,16.24
2022-08-12T03:24:17.245Z,16.21
2022-08-12T03:26:45.228Z,16.16
2022-08-12T03:29:12.720Z,16.12
2022-08-12T03:31:39.404Z,16.03
2022-08-12T03:34:08.793Z,15.94
2022-08-12T03:36:37.092Z,15.88
2022-08-12T03:39:18.720Z,15.76
2022-08-12T03:41:55.433Z,15.73
2022-08-12T03:44:56.486Z,15.65
2022-08-12T03:47:51.718Z,15.64
2022-08-12T03:50:37.482Z,15.64
2022-08-12T03:53:25.293Z,15.53
2022-08-12T03:56:10.871Z,15.43
2022-08-12T03:58:56.453Z,15.46
2022-08-12T04:01:25.532Z,15.35
2022-08-12T04:03:52.337Z,15.19
2022-08-12T04:06:35.171Z,15.08
2022-08-12T04:09:14.419Z,14.99
2022-08-12T04:12:01.390Z,15.04
2022-08-12T04:14:28.282Z,15.14
2022-08-12T04:16:56.335Z,15.14
2022-08-12T04:19:25.060Z,15.19
2022-08-12T04:22:02.619Z,15.25
2022-08-12T04:24:36.861Z,15.29
2022-08-12T04:27:09.289Z,15.34
2022-08-12T04:30:21.225Z,15.35
2022-08-12T04:32:25.351Z,15.29
2022-08-12T04:34:52.103Z,15.27
2022-08-12T04:37:18.708Z,15.32
2022-08-12T04:39:46.157Z,15.48
2022-08-12T04:42:13.133Z,15.61
2022-08-12T04:44:40.133Z,15.70
2022-08-12T04:47:07.495Z,15.80
2022-08-12T04:49:34.918Z,15.89
2022-08-12T04:52:02.789Z,15.95
2022-08-12T04:54:29.986Z,15.95
2022-08-12T04:57:03.244Z,15.98
2022-08-12T04:59:32.691Z,15.98
2022-08-12T05:02:21.599Z,15.96
2022-08-12T05:04:53.313Z,15.96
2022-08-12T05:07:20.543Z,15.98
2022-08-12T05:09:58.855Z,16.01
2022-08-12T05:12:37.163Z,16.01
2022-08-12T05:15:18.988Z,16.00
2022-08-12T05:17:51.970Z,16.12
2022-08-12T05:20:21.027Z,16.18
2022-08-12T05:22:47.848Z,16.15
2022-08-12T05:25:15.842Z,16.14
2022-08-12T05:27:57.854Z,16.18
2022-08-12T05:30:30.905Z,16.16
2022-08-12T05:33:00.131Z,16.19
2022-08-12T05:35:27.340Z,16.23
2022-08-12T05:38:14.055Z,16.32
2022-08-12T05:40:41.925Z,16.41
2022-08-12T05:43:08.644Z,16.50
2022-08-12T05:45:35.307Z,16.57
2022-08-12T05:48:02.710Z,16.66
2022-08-12T05:50:29.936Z,16.74
2022-08-12T05:52:56.549Z,16.85
2022-08-12T05:55:25.939Z,17.00
2022-08-12T05:57:57.347Z,17.10
2022-08-12T06:00:29.341Z,17.18
2022-08-12T06:03:01.123Z,17.24
2022-08-12T06:05:51.991Z,17.36
2022-08-12T06:08:22.403Z,17.54
2022-08-12T06:10:51.776Z,17.54
2022-08-12T06:13:28.388Z,17.64
2022-08-12T06:16:07.324Z,17.70
2022-08-12T06:18:34.502Z,17.78
2022-08-12T06:21:01.907Z,17.89
2022-08-12T06:23:29.748Z,17.89
2022-08-12T06:25:56.664Z,18.13
2022-08-12T06:28:23.681Z,18.25
2022-08-12T06:31:14.824Z,18.42
2022-08-12T06:33:59.448Z,18.69
2022-08-12T06:36:29.598Z,18.75
2022-08-12T06:38:59.274Z,18.82
2022-08-12T06:42:30.637Z,19.01
2022-08-12T06:44:32.509Z,19.12
2022-08-12T06:46:59.209Z,19.02
2022-08-12T06:49:25.979Z,19.14
2022-08-12T06:51:56.772Z,19.16
2022-08-12T06:54:27.128Z,19.17
2022-08-12T06:57:59.670Z,19.35
2022-08-12T06:59:50.382Z,19.37
2022-08-12T07:02:20.560Z,19.54
2022-08-12T07:04:47.510Z,19.46
2022-08-12T07:07:14.215Z,19.63
2022-08-12T07:10:01.489Z,20.00
2022-08-12T07:12:29.176Z,20.27
2022-08-12T07:14:59.487Z,20.29
2022-08-12T07:17:31.597Z,20.31
2022-08-12T07:20:03.982Z,20.40
2022-08-12T07:22:31.244Z,20.74
2022-08-12T07:25:16.475Z,21.03
2022-08-12T07:27:43.475Z,21.24
2022-08-12T07:30:10.913Z,21.22
2022-08-12T07:32:37.609Z,20.87
2022-08-12T07:35:04.783Z,20.80
2022-08-12T07:37:31.674Z,21.02
2022-08-12T07:39:59.657Z,21.06
2022-08-12T07:42:28.279Z,21.11
2022-08-12T07:44:55.874Z,21.25
2022-08-12T07:47:23.063Z,21.30
2022-08-12T07:50:05.263Z,21.18
2022-08-12T07:52:38.448Z,21.51
2022-08-12T07:55:05.762Z,21.84
2022-08-12T07:57:35.145Z,22.09
2022-08-12T08:02:35.838Z,22.18
2022-08-12T08:05:04.047Z,22.32
2022-08-12T08:07:31.120Z,22.24
2022-08-12T08:10:00.202Z,22.24
2022-08-12T08:12:47.670Z,22.45
2022-08-12T08:15:15.795Z,22.86
2022-08-12T08:18:02.922Z,23.15
2022-08-12T08:20:35.833Z,23.35
2022-08-12T08:23:08.391Z,23.60
2022-08-12T08:25:38.848Z,23.45
2022-08-12T08:28:16.138Z,23.95
2022-08-12T08:30:46.491Z,24.23
2022-08-12T08:33:20.146Z,24.47
2022-08-12T08:35:50.140Z,24.43
2022-08-12T08:38:33.343Z,24.52
2022-08-12T08:42:17.444Z,24.78
2022-08-12T08:44:12.113Z,25.12
2022-08-12T08:46:41.097Z,25.18
2022-08-12T08:49:08.598Z,25.20
2022-08-12T08:51:40.688Z,25.28
2022-08-12T08:54:10.883Z,25.39
2022-08-12T08:56:50.191Z,25.60
2022-08-12T08:59:22.435Z,25.81
2022-08-12T09:01:52.432Z,25.76
2022-08-12T09:05:12.171Z,25.83
2022-08-12T09:07:18.204Z,25.75
2022-08-12T09:10:04.148Z,26.00
2022-08-12T09:15:42.580Z,26.01
2022-08-12T09:18:26.669Z,25.90
2022-08-12T09:21:01.988Z,26.31
2022-08-12T09:24:00.312Z,26.64
2022-08-12T09:26:21.829Z,26.81
2022-08-12T09:29:00.756Z,26.43
2022-08-12T09:32:07.498Z,26.46
2022-08-12T09:34:27.638Z,26.93
2022-08-12T09:37:18.563Z,26.78
2022-08-12T09:40:02.587Z,26.71
2022-08-12T09:43:10.932Z,26.77
2022-08-12T09:46:11.783Z,26.36
2022-08-12T09:48:24.865Z,26.59
2022-08-12T09:50:54.994Z,26.94
2022-08-12T09:53:29.251Z,26.92
2022-08-12T09:56:56.995Z,26.25
2022-08-12T09:59:00.184Z,26.49
2022-08-12T10:01:35.368Z,26.57
2022-08-12T10:04:19.056Z,26.49
2022-08-12T10:06:46.636Z,26.52
2022-08-12T10:09:28.280Z,26.82
2022-08-12T10:12:31.487Z,26.60
2022-08-12T10:15:01.491Z,26.67
2022-08-12T10:17:28.297Z,26.51
2022-08-12T10:19:54.866Z,26.48
2022-08-12T10:22:40.220Z,26.74
2022-08-12T10:26:34.327Z,26.47
2022-08-12T10:28:33.423Z,25.86
2022-08-12T10:31:01.387Z,26.48
2022-08-12T10:33:33.522Z,26.58
2022-08-12T10:36:01.952Z,26.58
2022-08-12T10:38:39.088Z,26.23
2022-08-12T10:41:57.905Z,26.12
2022-08-12T10:44:17.272Z,26.17
2022-08-12T10:46:49.390Z,26.22
2022-08-12T10:50:03.731Z,26.10
2022-08-12T10:52:33.827Z,26.16
2022-08-12T10:54:55.974Z,26.33
2022-08-12T10:58:12.731Z,26.03
2022-08-12T11:00:31.020Z,26.23
2022-08-12T11:04:25.695Z,26.57
2022-08-12T11:07:09.297Z,26.61
2022-08-12T11:08:43.246Z,26.62
2022-08-12T11:11:17.584Z,26.44
2022-08-12T11:13:48.722Z,26.02
2022-08-12T11:16:22.643Z,25.97
2022-08-12T11:18:55.298Z,25.76
2022-08-12T11:21:51.109Z,25.63
2022-08-12T11:24:30.331Z,26.04
2022-08-12T11:26:59.171Z,26.04
2022-08-12T11:29:27.499Z,25.79
2022-08-12T11:32:14.080Z,26.11
2022-08-12T11:34:52.924Z,26.30
2022-08-12T11:37:25.929Z,26.25
2022-08-12T11:42:39.644Z,26.59
2022-08-12T11:45:12.998Z,26.58
2022-08-12T11:47:43.747Z,26.38
2022-08-12T11:50:11.833Z,27.00
2022-08-12T11:52:56.432Z,27.16
2022-08-12T11:55:25.293Z,27.32
2022-08-12T11:58:19.841Z,27.17
2022-08-12T12:03:45.661Z,26.96
2022-08-12T12:06:17.821Z,26.49
2022-08-12T12:08:52.828Z,26.41
2022-08-12T12:11:21.683Z,26.68
2022-08-12T12:14:08.345Z,26.67
2022-08-12T12:16:37.992Z,27.11
2022-08-12T12:19:07.160Z,27.84
2022-08-12T12:21:47.393Z,27.03
2022-08-12T12:24:21.511Z,27.42
2022-08-12T12:27:00.507Z,27.50
2022-08-12T12:30:18.298Z,28.06
2022-08-12T12:32:18.358Z,28.51
2022-08-12T12:35:13.520Z,28.45
2022-08-12T12:38:05.102Z,28.11
2022-08-12T12:40:18.795Z,27.95
2022-08-12T12:43:00.367Z,28.23
2022-08-12T12:45:32.444Z,27.93
2022-08-12T12:48:03.027Z,27.65
2022-08-12T12:51:09.483Z,27.39
2022-08-12T12:54:07.644Z,27.10
2022-08-12T12:56:34.050Z,27.42
2022-08-12T12:59:03.624Z,27.33
2022-08-12T13:01:32.052Z,27.33
2022-08-12T13:04:02.653Z,27.14
2022-08-12T13:06:31.612Z,27.05
2022-08-12T13:09:02.577Z,27.18
2022-08-12T13:11:39.032Z,27.60
2022-08-12T13:14:12.819Z,27.95
2022-08-12T13:16:55.178Z,28.58
2022-08-12T13:19:25.475Z,28.74
2022-08-12T13:22:23.607Z,28.63
2022-08-12T13:24:56.755Z,28.09
2022-08-12T13:27:35.049Z,28.78
2022-08-12T13:30:07.008Z,28.94
2022-08-12T13:32:39.206Z,28.75
2022-08-12T13:35:19.713Z,28.07
2022-08-12T13:37:55.695Z,27.35
2022-08-12T13:40:25.031Z,27.15
2022-08-12T13:42:58.590Z,27.31
2022-08-12T13:45:26.507Z,27.76
2022-08-12T13:47:58.468Z,28.05
2022-08-12T13:50:36.480Z,28.01
2022-08-12T13:53:06.113Z,28.24
2022-08-12T13:56:01.515Z,28.10
2022-08-12T13:58:30.156Z,27.95
2022-08-12T14:00:58.083Z,27.95
2022-08-12T14:03:28.493Z,27.37
2022-08-12T14:06:15.452Z,27.11
2022-08-12T14:08:43.117Z,27.09
2022-08-12T14:11:12.433Z,27.07
2022-08-12T14:14:06.127Z,26.88
2022-08-12T14:16:37.718Z,27.33
2022-08-12T14:19:22.014Z,27.27
2022-08-12T14:22:01.427Z,27.29
2022-08-12T14:24:35.353Z,27.20
2022-08-12T14:27:03.741Z,27.35
2022-08-12T14:29:55.673Z,27.82
2022-08-12T14:32:23.736Z,28.17
2022-08-12T14:34:51.531Z,28.66
2022-08-12T14:37:57.280Z,28.65
2022-08-12T14:40:06.926Z,27.47
2022-08-12T14:42:33.484Z,27.58
2022-08-12T14:45:01.789Z,27.38
2022-08-12T14:47:34.889Z,27.75
2022-08-12T14:50:37.679Z,28.10
2022-08-12T14:58:25.457Z,28.35
2022-08-12T15:01:11.437Z,27.97
2022-08-12T15:03:52.403Z,27.88
2022-08-12T15:06:43.572Z,27.38
2022-08-12T15:09:11.845Z,27.18
2022-08-12T15:11:54.344Z,27.44
2022-08-12T15:14:26.746Z,27.61
2022-08-12T15:16:56.839Z,27.84
2022-08-12T15:20:11.214Z,27.14
2022-08-12T15:22:38.456Z,26.86
2022-08-12T15:25:03.508Z,26.49
2022-08-12T15:28:03.877Z,26.60
2022-08-12T15:30:22.809Z,27.11
2022-08-12T15:32:50.736Z,27.85
2022-08-12T15:35:17.583Z,27.86
2022-08-12T15:38:09.028Z,27.89
2022-08-12T15:40:33.285Z,28.28
2022-08-12T15:43:08.263Z,28.49
2022-08-12T15:45:42.573Z,28.27
2022-08-12T15:48:16.805Z,27.93
2022-08-12T15:50:47.194Z,27.25
2022-08-12T15:53:40.017Z,26.87
2022-08-12T15:56:12.696Z,26.55
2022-08-12T15:58:41.384Z,26.19
2022-08-12T16:01:15.104Z,26.02
2022-08-12T16:03:46.260Z,25.99
2022-08-12T16:06:50.863Z,25.81
2022-08-12T16:09:17.367Z,26.15
2022-08-12T16:11:48.618Z,26.65
2022-08-12T16:14:16.111Z,27.21
2022-08-12T16:16:42.959Z,27.48
2022-08-12T16:20:01.723Z,27.52
2022-08-12T16:21:58.971Z,27.26
2022-08-12T16:24:25.886Z,27.34
2022-08-12T16:26:54.366Z,27.32
2022-08-12T16:29:49.465Z,27.65
2022-08-12T16:32:19.303Z,28.81
2022-08-12T16:34:55.899Z,29.14
2022-08-12T16:38:15.527Z,30.43
2022-08-12T16:40:12.051Z,30.33
2022-08-12T16:42:42.103Z,28.79
2022-08-12T16:45:20.900Z,27.73
2022-08-12T16:47:57.719Z,27.10
2022-08-12T16:50:31.205Z,26.65
2022-08-12T16:52:59.744Z,26.32
2022-08-12T16:55:35.065Z,26.08
2022-08-12T16:58:27.867Z,25.97
2022-08-12T17:00:58.271Z,25.71
2022-08-12T17:03:29.109Z,25.60
2022-08-12T17:05:57.135Z,25.65
2022-08-12T17:08:29.284Z,25.62
2022-08-12T17:10:56.179Z,25.65
2022-08-12T17:13:26.117Z,25.54
2022-08-12T17:16:05.186Z,25.43
2022-08-12T17:18:42.859Z,25.28
2022-08-12T17:21:17.336Z,25.19
2022-08-12T17:23:53.715Z,25.27
2022-08-12T17:26:22.436Z,25.16
2022-08-12T17:28:56.087Z,24.92
2022-08-12T17:31:59.661Z,24.79
2022-08-12T17:34:29.141Z,24.71
2022-08-12T17:36:58.705Z,24.68
2022-08-12T17:40:15.598Z,24.56
2022-08-12T17:42:34.655Z,24.36
2022-08-12T17:45:17.225Z,24.35
2022-08-12T17:48:01.507Z,24.49
2022-08-12T17:50:34.207Z,24.31
2022-08-12T17:53:03.258Z,24.22
2022-08-12T17:55:44.641Z,24.26
2022-08-12T17:58:15.235Z,24.13
2022-08-12T18:00:44.201Z,24.21
2022-08-12T18:04:04.396Z,24.06
2022-08-12T18:06:08.097Z,23.93
2022-08-12T18:08:35.706Z,23.80
2022-08-12T18:11:38.311Z,23.55
2022-08-12T18:14:08.183Z,23.57
2022-08-12T18:16:38.599Z,23.74
2022-08-12T18:19:07.016Z,23.81
2022-08-12T18:22:01.121Z,23.71
2022-08-12T18:24:25.074Z,23.64
2022-08-12T18:26:56.562Z,23.58
2022-08-12T18:29:23.937Z,23.42
2022-08-12T18:31:59.183Z,23.35
2022-08-12T18:34:29.185Z,23.27
2022-08-12T18:36:59.547Z,23.14
2022-08-12T18:39:57.538Z,23.12
2022-08-12T18:42:27.242Z,23.02
2022-08-12T18:44:58.740Z,22.81
2022-08-12T18:47:49.826Z,22.68
2022-08-12T18:50:18.377Z,22.33
2022-08-12T18:52:48.434Z,22.11
2022-08-12T18:55:16.127Z,21.95
2022-08-12T18:58:06.222Z,21.86
2022-08-12T19:00:32.052Z,21.83
2022-08-12T19:02:58.678Z,21.77
2022-08-12T19:05:53.254Z,21.63
2022-08-12T19:08:14.501Z,21.56
2022-08-12T19:10:42.986Z,21.82
2022-08-12T19:13:36.177Z,22.03
2022-08-12T19:16:11.235Z,22.09
2022-08-12T19:18:40.922Z,22.18
2022-08-12T19:21:16.043Z,22.30
2022-08-12T19:23:44.006Z,22.39
2022-08-12T19:26:12.498Z,22.20
2022-08-12T19:28:39.765Z,22.01
2022-08-12T19:31:55.934Z,21.94
2022-08-12T19:37:27.409Z,22.14
2022-08-12T19:40:09.019Z,22.12
2022-08-12T19:42:53.608Z,21.95
2022-08-12T19:45:24.464Z,21.74
2022-08-12T19:48:17.057Z,21.57
2022-08-12T19:50:50.634Z,21.49
2022-08-12T19:53:22.833Z,21.60
2022-08-12T19:55:52.676Z,21.52
2022-08-12T19:58:20.351Z,21.44
2022-08-12T20:00:52.601Z,21.48
2022-08-12T20:03:39.562Z,21.58
2022-08-12T20:06:21.801Z,21.55
2022-08-12T20:08:55.928Z,21.64
2022-08-12T20:12:15.175Z,21.68
2022-08-12T20:14:18.609Z,21.61
2022-08-12T20:16:51.110Z,21.48
2022-08-12T20:19:21.178Z,21.37
2022-08-12T20:21:50.513Z,21.35
2022-08-12T20:24:17.160Z,21.34
2022-08-12T20:26:46.393Z,21.39
2022-08-12T20:29:13.499Z,21.22
2022-08-12T20:31:40.814Z,21.00
2022-08-12T20:34:08.688Z,20.90
2022-08-12T20:36:44.623Z,20.80
2022-08-12T20:39:35.979Z,20.61
2022-08-12T20:42:07.184Z,20.72
2022-08-12T20:44:39.826Z,20.58
2022-08-12T20:47:20.119Z,20.54
2022-08-12T20:49:56.048Z,20.59
2022-08-12T20:52:29.835Z,20.55
2022-08-12T20:55:15.697Z,20.35
2022-08-12T20:58:02.530Z,20.28
2022-08-12T21:00:31.722Z,20.33
2022-08-12T21:03:19.589Z,20.27
2022-08-12T21:06:12.510Z,20.11
2022-08-12T21:08:41.659Z,20.01
2022-08-12T21:11:10.227Z,19.94
2022-08-12T21:13:41.849Z,19.79
2022-08-12T21:16:10.086Z,19.66
2022-08-12T21:18:37.665Z,19.64
2022-08-12T21:21:05.545Z,19.69
2022-08-12T21:23:37.346Z,19.63
2022-08-12T21:26:11.256Z,19.56
2022-08-12T21:28:58.877Z,19.55
2022-08-12T21:32:40.335Z,19.48
2022-08-12T21:34:19.461Z,19.28
2022-08-12T21:36:52.820Z,19.15
2022-08-12T21:39:27.904Z,19.04
2022-08-12T21:42:06.681Z,18.94
2022-08-12T21:45:45.777Z,18.93
2022-08-12T21:47:23.501Z,18.90
2022-08-12T21:50:03.325Z,18.91
2022-08-12T21:52:36.481Z,18.89
2022-08-12T21:55:19.496Z,18.80
2022-08-12T21:57:53.572Z,18.78
2022-08-12T22:00:31.782Z,18.80
2022-08-12T22:04:02.080Z,18.78
2022-08-12T22:06:31.481Z,18.72
2022-08-12T22:09:17.168Z,18.76
2022-08-12T22:11:49.209Z,18.72
2022-08-12T22:14:24.287Z,18.75
2022-08-12T22:16:54.764Z,18.70
2022-08-12T22:19:23.248Z,18.49
2022-08-12T22:21:53.989Z,18.41
2022-08-12T22:24:27.112Z,18.34
2022-08-12T22:27:08.269Z,18.30
2022-08-12T22:30:07.577Z,18.19
2022-08-12T22:32:41.946Z,17.98
2022-08-12T22:35:55.978Z,17.91
2022-08-12T22:38:19.917Z,17.80
2022-08-12T22:40:48.001Z,17.72
2022-08-12T22:43:34.076Z,17.74
2022-08-12T22:46:19.462Z,17.69
2022-08-12T22:48:50.349Z,17.67
2022-08-12T22:51:22.179Z,17.63
2022-08-12T22:53:54.759Z,17.88
2022-08-12T22:56:31.094Z,17.64
2022-08-12T22:59:02.758Z,17.43
2022-08-12T23:02:01.003Z,17.41
2022-08-12T23:04:27.588Z,17.42
2022-08-12T23:06:56.711Z,17.32
2022-08-12T23:09:34.637Z,17.28
2022-08-12T23:12:35.202Z,17.12
2022-08-12T23:15:08.289Z,17.05
2022-08-12T23:17:40.087Z,17.07
2022-08-12T23:20:11.044Z,17.08
2022-08-12T23:22:38.519Z,17.06
2022-08-12T23:25:07.627Z,17.01
2022-08-12T23:28:04.456Z,16.93
2022-08-12T23:30:35.157Z,16.88
2022-08-12T23:33:20.007Z,16.91
2022-08-12T23:36:02.463Z,16.91
2022-08-12T23:38:32.424Z,16.87
2022-08-12T23:41:04.288Z,16.82
2022-08-12T23:43:39.416Z,16.84
2022-08-12T23:46:08.685Z,16.84
2022-08-12T23:48:35.769Z,16.88
2022-08-12T23:51:21.662Z,16.89
2022-08-12T23:53:48.571Z,16.86
2022-08-12T23:56:16.355Z,16.84
2022-08-12T23:58:49.681Z,16.81
